Impacts METAR Board
IDs:

KPIT - Pittsburgh Intl, PA, US

Updated at: 0400 UTC 06 Dec 2019
Potential Impact None Slight Moderate High
Time 05/16Z 05/17Z 05/18Z 05/19Z 05/20Z 05/21Z 05/22Z 05/23Z 06/00Z 06/01Z 06/02Z 06/03Z 06/04Z
Temp35 36 36 38 40 39 38 37 35 35 33 33 30
Dewpt22 23 23 23 24 23 24 23 24 23 23 23 23
Altim30.00 30.00 30.01 30.00 30.02 30.03 30.05 30.07 30.08 30.09 30.08 30.09 30.08
VIS10 10 10 10 10 10 10 10 10 10 10 10 10
CIG44 39 36 37 130 130 95 -- 250 90 250 -- --
CoverOVCOVCOVCBKNBKNBKNBKNSCTBKNBKNBKNSCTSCT
FltCatVFRVFRVFRVFRVFRVFRVFRVFRVFRVFRVFRVFRVFR
WX--------------------------
WDir280280280280300270270230002100170
WSpd12 13 14 14 14 11 5 4 0 0 4 0 3
WGst22 -- 23 25 -- -- -- -- -- -- -- -- --
Raw hourly METARs
KPIT 051551Z 28012G22KT 10SM FEW032 OVC044 02/M06 A3000 RMK AO2 SLP178 T00171056
KPIT 051651Z 28013KT 10SM OVC039 02/M05 A3000 RMK AO2 SLP176 T00221050
KPIT 051751Z 28014G23KT 10SM OVC036 02/M05 A3001 RMK AO2 SLP181 T00221050 10022 20000 51013
KPIT 051851Z 28014G25KT 10SM BKN037 03/M05 A3000 RMK AO2 SLP176 T00331050
KPIT 051951Z 30014KT 10SM SCT040 BKN130 BKN250 04/M04 A3002 RMK AO2 SLP181 T00441044
KPIT 052051Z 27011KT 10SM FEW041 BKN130 BKN250 04/M05 A3003 RMK AO2 SLP188 T00391050 53007
KPIT 052151Z 27005KT 10SM FEW042 BKN095 BKN250 03/M04 A3005 RMK AO2 SLP194 T00331044
KPIT 052251Z 23004KT 10SM FEW100 SCT250 03/M05 A3007 RMK AO2 SLP201 T00281050
KPIT 052351Z 00000KT 10SM FEW100 BKN250 02/M04 A3008 RMK AO2 SLP206 T00171044 10050 20017 51015
KPIT 060051Z 00000KT 10SM BKN090 BKN250 02/M05 A3009 RMK AO2 SLP209 T00171050
KPIT 060151Z 21004KT 10SM SCT090 BKN250 01/M05 A3008 RMK AO2 SLP206 T00061050
KPIT 060251Z 00000KT 10SM FEW095 SCT250 01/M05 A3009 RMK AO2 SLP207 T00061050 51001
KPIT 060351Z 17003KT 10SM FEW095 SCT250 M01/M05 A3008 RMK AO2 SLP205 T10111050



Page loaded:  04:09 UTC  |   08:09 PM Pacific  |   09:09 PM Mountain  |   10:09 PM Central  |   11:09 PM Eastern

 

ADVISORIES

FORECASTS

FORECASTS

OBSERVATIONS

USER TOOLS

ABOUT US